sensor_id;sensor_type;location;lat;lon;timestamp;P1;durP1;ratioP1;P2;durP2;ratioP2
2406;SDS011;37709;53.480;9.688;2023-05-07T00:02:06;11.33;;;10.17;;
2406;SDS011;37709;53.480;9.688;2023-05-07T00:04:34;12.63;;;11.43;;
2406;SDS011;37709;53.480;9.688;2023-05-07T00:07:04;14.03;;;12.70;;
2406;SDS011;37709;53.480;9.688;2023-05-07T00:09:32;11.00;;;9.90;;
2406;SDS011;37709;53.480;9.688;2023-05-07T00:11:59;11.90;;;10.80;;
2406;SDS011;37709;53.480;9.688;2023-05-07T00:14:27;12.30;;;11.20;;
2406;SDS011;37709;53.480;9.688;2023-05-07T00:16:55;13.10;;;11.80;;
2406;SDS011;37709;53.480;9.688;2023-05-07T00:19:22;13.10;;;11.90;;
2406;SDS011;37709;53.480;9.688;2023-05-07T00:21:50;14.37;;;12.80;;
2406;SDS011;37709;53.480;9.688;2023-05-07T00:24:20;12.40;;;11.20;;
2406;SDS011;37709;53.480;9.688;2023-05-07T00:26:47;13.03;;;11.83;;
2406;SDS011;37709;53.480;9.688;2023-05-07T00:29:14;14.67;;;11.33;;
2406;SDS011;37709;53.480;9.688;2023-05-07T00:31:41;12.90;;;11.30;;
2406;SDS011;37709;53.480;9.688;2023-05-07T00:34:09;12.67;;;11.43;;
2406;SDS011;37709;53.480;9.688;2023-05-07T00:36:36;13.90;;;12.70;;
2406;SDS011;37709;53.480;9.688;2023-05-07T00:39:03;12.20;;;11.10;;
2406;SDS011;37709;53.480;9.688;2023-05-07T00:41:31;11.77;;;10.40;;
2406;SDS011;37709;53.480;9.688;2023-05-07T00:43:58;12.77;;;11.47;;
2406;SDS011;37709;53.480;9.688;2023-05-07T00:46:25;11.57;;;10.33;;
2406;SDS011;37709;53.480;9.688;2023-05-07T00:48:53;10.80;;;9.70;;
2406;SDS011;37709;53.480;9.688;2023-05-07T00:51:21;10.13;;;9.03;;
2406;SDS011;37709;53.480;9.688;2023-05-07T00:53:48;10.43;;;9.33;;
2406;SDS011;37709;53.480;9.688;2023-05-07T00:56:16;9.07;;;8.23;;
2406;SDS011;37709;53.480;9.688;2023-05-07T00:58:43;8.80;;;8.00;;
2406;SDS011;37709;53.480;9.688;2023-05-07T01:01:11;9.20;;;8.30;;
2406;SDS011;37709;53.480;9.688;2023-05-07T01:03:38;9.50;;;8.53;;
2406;SDS011;37709;53.480;9.688;2023-05-07T01:06:06;9.30;;;8.33;;
2406;SDS011;37709;53.480;9.688;2023-05-07T01:08:35;9.30;;;8.30;;
2406;SDS011;37709;53.480;9.688;2023-05-07T01:11:06;10.63;;;9.47;;
2406;SDS011;37709;53.480;9.688;2023-05-07T01:13:34;9.40;;;8.40;;
2406;SDS011;37709;53.480;9.688;2023-05-07T01:16:03;8.77;;;8.00;;
2406;SDS011;37709;53.480;9.688;2023-05-07T01:18:31;9.17;;;8.27;;
2406;SDS011;37709;53.480;9.688;2023-05-07T01:21:00;7.90;;;7.10;;
2406;SDS011;37709;53.480;9.688;2023-05-07T01:23:30;8.43;;;7.53;;
2406;SDS011;37709;53.480;9.688;2023-05-07T01:25:57;8.87;;;8.00;;
2406;SDS011;37709;53.480;9.688;2023-05-07T01:28:28;8.30;;;7.50;;
2406;SDS011;37709;53.480;9.688;2023-05-07T01:31:01;8.83;;;7.30;;
2406;SDS011;37709;53.480;9.688;2023-05-07T01:33:32;8.03;;;7.23;;
2406;SDS011;37709;53.480;9.688;2023-05-07T01:36:02;8.60;;;7.80;;
2406;SDS011;37709;53.480;9.688;2023-05-07T01:38:32;7.70;;;6.77;;
2406;SDS011;37709;53.480;9.688;2023-05-07T01:41:00;7.90;;;7.10;;
2406;SDS011;37709;53.480;9.688;2023-05-07T01:43:29;7.10;;;6.40;;
2406;SDS011;37709;53.480;9.688;2023-05-07T01:45:57;7.97;;;7.17;;
2406;SDS011;37709;53.480;9.688;2023-05-07T01:48:25;7.03;;;6.40;;
2406;SDS011;37709;53.480;9.688;2023-05-07T01:50:53;7.30;;;6.60;;
2406;SDS011;37709;53.480;9.688;2023-05-07T01:53:21;8.27;;;7.47;;
2406;SDS011;37709;53.480;9.688;2023-05-07T01:55:49;7.40;;;6.80;;
2406;SDS011;37709;53.480;9.688;2023-05-07T01:58:17;7.00;;;6.20;;
2406;SDS011;37709;53.480;9.688;2023-05-07T02:00:44;7.13;;;6.53;;
2406;SDS011;37709;53.480;9.688;2023-05-07T02:03:11;7.50;;;6.80;;
2406;SDS011;37709;53.480;9.688;2023-05-07T02:05:46;7.73;;;7.03;;
2406;SDS011;37709;53.480;9.688;2023-05-07T02:08:32;7.17;;;6.47;;
2406;SDS011;37709;53.480;9.688;2023-05-07T02:11:00;8.00;;;7.20;;
2406;SDS011;37709;53.480;9.688;2023-05-07T02:13:29;8.80;;;7.90;;
2406;SDS011;37709;53.480;9.688;2023-05-07T02:15:58;7.40;;;6.80;;
2406;SDS011;37709;53.480;9.688;2023-05-07T02:18:27;7.77;;;7.07;;
2406;SDS011;37709;53.480;9.688;2023-05-07T02:20:55;8.43;;;7.73;;
2406;SDS011;37709;53.480;9.688;2023-05-07T02:23:22;8.17;;;7.47;;
2406;SDS011;37709;53.480;9.688;2023-05-07T02:25:49;7.33;;;6.73;;
2406;SDS011;37709;53.480;9.688;2023-05-07T02:28:17;8.10;;;7.30;;
2406;SDS011;37709;53.480;9.688;2023-05-07T02:30:50;6.73;;;6.03;;
2406;SDS011;37709;53.480;9.688;2023-05-07T02:33:18;6.80;;;6.30;;
2406;SDS011;37709;53.480;9.688;2023-05-07T02:35:46;8.23;;;7.53;;
2406;SDS011;37709;53.480;9.688;2023-05-07T02:38:15;8.70;;;7.90;;
2406;SDS011;37709;53.480;9.688;2023-05-07T02:40:43;8.40;;;7.60;;
2406;SDS011;37709;53.480;9.688;2023-05-07T02:43:10;8.13;;;7.40;;
2406;SDS011;37709;53.480;9.688;2023-05-07T02:45:41;7.60;;;6.90;;
2406;SDS011;37709;53.480;9.688;2023-05-07T02:48:10;8.10;;;7.40;;
2406;SDS011;37709;53.480;9.688;2023-05-07T02:50:37;9.03;;;8.13;;
2406;SDS011;37709;53.480;9.688;2023-05-07T02:53:05;7.43;;;6.63;;
2406;SDS011;37709;53.480;9.688;2023-05-07T02:55:33;7.73;;;7.03;;
2406;SDS011;37709;53.480;9.688;2023-05-07T02:58:00;7.30;;;6.70;;
2406;SDS011;37709;53.480;9.688;2023-05-07T03:00:31;7.53;;;6.83;;
2406;SDS011;37709;53.480;9.688;2023-05-07T03:03:26;7.90;;;7.10;;
2406;SDS011;37709;53.480;9.688;2023-05-07T03:05:53;7.50;;;6.77;;
2406;SDS011;37709;53.480;9.688;2023-05-07T03:08:20;7.07;;;6.40;;
2406;SDS011;37709;53.480;9.688;2023-05-07T03:10:48;8.50;;;7.80;;
2406;SDS011;37709;53.480;9.688;2023-05-07T03:13:15;7.43;;;6.77;;
2406;SDS011;37709;53.480;9.688;2023-05-07T03:15:43;7.40;;;6.80;;
2406;SDS011;37709;53.480;9.688;2023-05-07T03:18:11;7.07;;;6.47;;
2406;SDS011;37709;53.480;9.688;2023-05-07T03:20:38;7.17;;;6.50;;
2406;SDS011;37709;53.480;9.688;2023-05-07T03:23:06;7.20;;;6.60;;
2406;SDS011;37709;53.480;9.688;2023-05-07T03:25:33;7.80;;;7.10;;
2406;SDS011;37709;53.480;9.688;2023-05-07T03:28:00;7.60;;;6.90;;
2406;SDS011;37709;53.480;9.688;2023-05-07T03:30:37;8.40;;;7.60;;
2406;SDS011;37709;53.480;9.688;2023-05-07T03:33:05;7.57;;;6.93;;
2406;SDS011;37709;53.480;9.688;2023-05-07T03:35:32;8.13;;;7.33;;
2406;SDS011;37709;53.480;9.688;2023-05-07T03:38:00;8.07;;;7.37;;
2406;SDS011;37709;53.480;9.688;2023-05-07T03:40:31;8.10;;;7.30;;
2406;SDS011;37709;53.480;9.688;2023-05-07T03:42:59;8.50;;;7.80;;
2406;SDS011;37709;53.480;9.688;2023-05-07T03:48:24;10.10;;;8.43;;
2406;SDS011;37709;53.480;9.688;2023-05-07T03:50:56;7.33;;;6.63;;
2406;SDS011;37709;53.480;9.688;2023-05-07T03:53:28;10.20;;;9.20;;
2406;SDS011;37709;53.480;9.688;2023-05-07T03:55:56;8.90;;;8.07;;
2406;SDS011;37709;53.480;9.688;2023-05-07T03:58:23;9.73;;;8.73;;
2406;SDS011;37709;53.480;9.688;2023-05-07T04:00:52;8.50;;;7.70;;
2406;SDS011;37709;53.480;9.688;2023-05-07T04:03:25;8.60;;;7.80;;
2406;SDS011;37709;53.480;9.688;2023-05-07T04:05:53;8.63;;;7.83;;
2406;SDS011;37709;53.480;9.688;2023-05-07T04:08:21;10.77;;;7.87;;
2406;SDS011;37709;53.480;9.688;2023-05-07T04:10:55;9.30;;;8.40;;
2406;SDS011;37709;53.480;9.688;2023-05-07T04:13:25;9.30;;;8.40;;
2406;SDS011;37709;53.480;9.688;2023-05-07T04:15:54;9.60;;;8.80;;
2406;SDS011;37709;53.480;9.688;2023-05-07T04:18:23;9.83;;;8.93;;
2406;SDS011;37709;53.480;9.688;2023-05-07T04:20:51;9.07;;;8.37;;
2406;SDS011;37709;53.480;9.688;2023-05-07T04:23:18;8.60;;;7.80;;
2406;SDS011;37709;53.480;9.688;2023-05-07T04:25:46;8.53;;;7.73;;
2406;SDS011;37709;53.480;9.688;2023-05-07T04:28:21;8.90;;;8.07;;
2406;SDS011;37709;53.480;9.688;2023-05-07T04:30:50;9.33;;;8.43;;
2406;SDS011;37709;53.480;9.688;2023-05-07T04:33:20;9.60;;;8.60;;
2406;SDS011;37709;53.480;9.688;2023-05-07T04:35:48;9.77;;;8.87;;
2406;SDS011;37709;53.480;9.688;2023-05-07T04:38:15;9.60;;;8.73;;
2406;SDS011;37709;53.480;9.688;2023-05-07T04:40:44;10.30;;;8.00;;
2406;SDS011;37709;53.480;9.688;2023-05-07T04:43:15;9.50;;;8.60;;
2406;SDS011;37709;53.480;9.688;2023-05-07T04:45:49;7.80;;;6.87;;
2406;SDS011;37709;53.480;9.688;2023-05-07T04:48:19;8.90;;;8.10;;
2406;SDS011;37709;53.480;9.688;2023-05-07T04:50:51;8.63;;;7.90;;
2406;SDS011;37709;53.480;9.688;2023-05-07T04:53:20;8.27;;;7.40;;
2406;SDS011;37709;53.480;9.688;2023-05-07T04:55:54;7.37;;;6.67;;
2406;SDS011;37709;53.480;9.688;2023-05-07T04:58:24;9.80;;;8.80;;
2406;SDS011;37709;53.480;9.688;2023-05-07T05:00:52;9.30;;;8.40;;
2406;SDS011;37709;53.480;9.688;2023-05-07T05:03:19;8.40;;;7.60;;
2406;SDS011;37709;53.480;9.688;2023-05-07T05:05:48;9.93;;;7.80;;
2406;SDS011;37709;53.480;9.688;2023-05-07T05:08:16;9.33;;;8.43;;
2406;SDS011;37709;53.480;9.688;2023-05-07T05:10:44;9.37;;;8.47;;
2406;SDS011;37709;53.480;9.688;2023-05-07T05:13:11;9.30;;;8.50;;
2406;SDS011;37709;53.480;9.688;2023-05-07T05:15:41;9.03;;;8.23;;
2406;SDS011;37709;53.480;9.688;2023-05-07T05:18:08;9.17;;;8.47;;
2406;SDS011;37709;53.480;9.688;2023-05-07T05:20:36;10.13;;;7.67;;
2406;SDS011;37709;53.480;9.688;2023-05-07T05:23:03;9.63;;;8.73;;
2406;SDS011;37709;53.480;9.688;2023-05-07T05:25:31;9.73;;;8.50;;
2406;SDS011;37709;53.480;9.688;2023-05-07T05:27:59;9.17;;;8.33;;
2406;SDS011;37709;53.480;9.688;2023-05-07T05:30:28;9.00;;;8.20;;
2406;SDS011;37709;53.480;9.688;2023-05-07T05:32:55;9.20;;;8.37;;
2406;SDS011;37709;53.480;9.688;2023-05-07T05:35:23;9.40;;;8.50;;
2406;SDS011;37709;53.480;9.688;2023-05-07T05:37:50;9.30;;;8.40;;
2406;SDS011;37709;53.480;9.688;2023-05-07T05:40:18;9.20;;;8.27;;
2406;SDS011;37709;53.480;9.688;2023-05-07T05:42:46;8.77;;;7.97;;
2406;SDS011;37709;53.480;9.688;2023-05-07T05:45:15;8.60;;;7.90;;
2406;SDS011;37709;53.480;9.688;2023-05-07T05:47:44;10.20;;;9.13;;
2406;SDS011;37709;53.480;9.688;2023-05-07T05:50:12;8.47;;;7.60;;
2406;SDS011;37709;53.480;9.688;2023-05-07T05:52:40;9.40;;;8.03;;
2406;SDS011;37709;53.480;9.688;2023-05-07T05:55:07;8.17;;;7.37;;
2406;SDS011;37709;53.480;9.688;2023-05-07T05:57:36;8.07;;;7.30;;
2406;SDS011;37709;53.480;9.688;2023-05-07T06:00:04;8.20;;;7.40;;
2406;SDS011;37709;53.480;9.688;2023-05-07T06:02:44;9.67;;;8.67;;
2406;SDS011;37709;53.480;9.688;2023-05-07T06:05:16;8.77;;;7.90;;
2406;SDS011;37709;53.480;9.688;2023-05-07T06:07:45;10.93;;;7.77;;
2406;SDS011;37709;53.480;9.688;2023-05-07T06:10:12;8.53;;;7.73;;
2406;SDS011;37709;53.480;9.688;2023-05-07T06:12:40;8.40;;;7.60;;
2406;SDS011;37709;53.480;9.688;2023-05-07T06:15:07;8.60;;;7.80;;
2406;SDS011;37709;53.480;9.688;2023-05-07T06:17:35;7.77;;;6.97;;
2406;SDS011;37709;53.480;9.688;2023-05-07T06:20:03;9.03;;;8.17;;
2406;SDS011;37709;53.480;9.688;2023-05-07T06:22:30;8.20;;;7.40;;
2406;SDS011;37709;53.480;9.688;2023-05-07T06:24:58;7.77;;;7.00;;
2406;SDS011;37709;53.480;9.688;2023-05-07T06:27:26;7.60;;;6.80;;
2406;SDS011;37709;53.480;9.688;2023-05-07T06:29:55;7.63;;;6.90;;
2406;SDS011;37709;53.480;9.688;2023-05-07T06:32:22;9.17;;;8.37;;
2406;SDS011;37709;53.480;9.688;2023-05-07T06:34:51;8.87;;;7.63;;
2406;SDS011;37709;53.480;9.688;2023-05-07T06:37:19;8.87;;;8.07;;
2406;SDS011;37709;53.480;9.688;2023-05-07T06:39:52;8.27;;;7.47;;
2406;SDS011;37709;53.480;9.688;2023-05-07T06:42:19;8.30;;;7.50;;
2406;SDS011;37709;53.480;9.688;2023-05-07T06:44:48;8.20;;;7.40;;
2406;SDS011;37709;53.480;9.688;2023-05-07T06:47:17;7.80;;;7.10;;
2406;SDS011;37709;53.480;9.688;2023-05-07T06:49:49;7.80;;;7.00;;
2406;SDS011;37709;53.480;9.688;2023-05-07T06:52:19;8.40;;;7.60;;
2406;SDS011;37709;53.480;9.688;2023-05-07T06:54:48;7.93;;;7.13;;
2406;SDS011;37709;53.480;9.688;2023-05-07T06:57:17;8.20;;;7.40;;
2406;SDS011;37709;53.480;9.688;2023-05-07T06:59:45;7.53;;;6.80;;
2406;SDS011;37709;53.480;9.688;2023-05-07T07:02:12;7.10;;;6.40;;
2406;SDS011;37709;53.480;9.688;2023-05-07T07:04:41;8.17;;;7.37;;
2406;SDS011;37709;53.480;9.688;2023-05-07T07:07:10;5.17;;;4.67;;
2406;SDS011;37709;53.480;9.688;2023-05-07T07:09:39;7.33;;;6.63;;
2406;SDS011;37709;53.480;9.688;2023-05-07T07:12:08;8.27;;;7.57;;
2406;SDS011;37709;53.480;9.688;2023-05-07T07:14:38;7.60;;;6.97;;
2406;SDS011;37709;53.480;9.688;2023-05-07T07:17:06;7.50;;;6.80;;
2406;SDS011;37709;53.480;9.688;2023-05-07T07:19:34;7.40;;;6.80;;
2406;SDS011;37709;53.480;9.688;2023-05-07T07:22:02;7.33;;;6.63;;
2406;SDS011;37709;53.480;9.688;2023-05-07T07:24:31;5.30;;;4.80;;
2406;SDS011;37709;53.480;9.688;2023-05-07T07:27:01;6.90;;;6.20;;
2406;SDS011;37709;53.480;9.688;2023-05-07T07:29:30;6.73;;;6.13;;
2406;SDS011;37709;53.480;9.688;2023-05-07T07:31:57;6.30;;;5.73;;
2406;SDS011;37709;53.480;9.688;2023-05-07T07:34:25;7.20;;;6.50;;
2406;SDS011;37709;53.480;9.688;2023-05-07T07:36:53;6.30;;;5.80;;
2406;SDS011;37709;53.480;9.688;2023-05-07T07:39:20;6.20;;;5.60;;
2406;SDS011;37709;53.480;9.688;2023-05-07T07:41:51;7.63;;;6.93;;
2406;SDS011;37709;53.480;9.688;2023-05-07T07:44:19;6.47;;;5.87;;
2406;SDS011;37709;53.480;9.688;2023-05-07T07:46:51;7.43;;;6.73;;
2406;SDS011;37709;53.480;9.688;2023-05-07T07:49:20;10.83;;;5.80;;
2406;SDS011;37709;53.480;9.688;2023-05-07T07:51:47;6.50;;;5.87;;
2406;SDS011;37709;53.480;9.688;2023-05-07T07:54:15;6.33;;;5.70;;
2406;SDS011;37709;53.480;9.688;2023-05-07T07:56:43;6.60;;;6.00;;
2406;SDS011;37709;53.480;9.688;2023-05-07T07:59:12;7.20;;;6.50;;
2406;SDS011;37709;53.480;9.688;2023-05-07T08:01:42;5.80;;;5.30;;
2406;SDS011;37709;53.480;9.688;2023-05-07T08:04:10;6.90;;;6.20;;
2406;SDS011;37709;53.480;9.688;2023-05-07T08:06:40;6.27;;;5.67;;
2406;SDS011;37709;53.480;9.688;2023-05-07T08:09:08;6.43;;;5.40;;
2406;SDS011;37709;53.480;9.688;2023-05-07T08:11:37;7.33;;;6.30;;
2406;SDS011;37709;53.480;9.688;2023-05-07T08:14:04;6.90;;;6.00;;
2406;SDS011;37709;53.480;9.688;2023-05-07T08:16:33;6.47;;;5.73;;
2406;SDS011;37709;53.480;9.688;2023-05-07T08:19:01;5.80;;;5.30;;
2406;SDS011;37709;53.480;9.688;2023-05-07T08:21:29;6.30;;;5.70;;
2406;SDS011;37709;53.480;9.688;2023-05-07T08:24:01;6.30;;;5.50;;
2406;SDS011;37709;53.480;9.688;2023-05-07T08:26:29;5.77;;;4.90;;
2406;SDS011;37709;53.480;9.688;2023-05-07T08:28:56;7.10;;;4.90;;
2406;SDS011;37709;53.480;9.688;2023-05-07T08:31:24;7.43;;;5.40;;
2406;SDS011;37709;53.480;9.688;2023-05-07T08:33:52;6.33;;;5.70;;
2406;SDS011;37709;53.480;9.688;2023-05-07T08:36:19;5.97;;;5.40;;
2406;SDS011;37709;53.480;9.688;2023-05-07T08:38:47;6.37;;;5.77;;
2406;SDS011;37709;53.480;9.688;2023-05-07T08:41:15;6.37;;;5.77;;
2406;SDS011;37709;53.480;9.688;2023-05-07T08:43:49;5.63;;;5.10;;
2406;SDS011;37709;53.480;9.688;2023-05-07T08:46:19;5.47;;;4.97;;
2406;SDS011;37709;53.480;9.688;2023-05-07T08:48:49;5.27;;;4.77;;
2406;SDS011;37709;53.480;9.688;2023-05-07T08:51:18;4.93;;;4.53;;
2406;SDS011;37709;53.480;9.688;2023-05-07T08:53:47;5.27;;;4.87;;
2406;SDS011;37709;53.480;9.688;2023-05-07T08:56:21;5.73;;;5.23;;
2406;SDS011;37709;53.480;9.688;2023-05-07T08:58:51;6.23;;;5.67;;
2406;SDS011;37709;53.480;9.688;2023-05-07T09:01:18;5.73;;;5.23;;
2406;SDS011;37709;53.480;9.688;2023-05-07T09:03:50;6.17;;;5.57;;
2406;SDS011;37709;53.480;9.688;2023-05-07T09:06:20;5.50;;;5.00;;
2406;SDS011;37709;53.480;9.688;2023-05-07T09:08:55;6.10;;;5.60;;
2406;SDS011;37709;53.480;9.688;2023-05-07T09:11:27;5.17;;;4.77;;
2406;SDS011;37709;53.480;9.688;2023-05-07T09:13:58;5.27;;;4.87;;
2406;SDS011;37709;53.480;9.688;2023-05-07T09:16:34;6.10;;;5.00;;
2406;SDS011;37709;53.480;9.688;2023-05-07T09:19:02;6.03;;;5.53;;
2406;SDS011;37709;53.480;9.688;2023-05-07T09:21:30;6.10;;;5.50;;
2406;SDS011;37709;53.480;9.688;2023-05-07T09:23:59;5.83;;;5.33;;
2406;SDS011;37709;53.480;9.688;2023-05-07T09:26:34;4.60;;;4.27;;
2406;SDS011;37709;53.480;9.688;2023-05-07T09:29:03;5.03;;;4.53;;
2406;SDS011;37709;53.480;9.688;2023-05-07T09:31:30;4.90;;;4.50;;
2406;SDS011;37709;53.480;9.688;2023-05-07T09:33:58;5.17;;;4.67;;
2406;SDS011;37709;53.480;9.688;2023-05-07T09:36:29;4.40;;;4.03;;
2406;SDS011;37709;53.480;9.688;2023-05-07T09:39:01;4.93;;;4.50;;
2406;SDS011;37709;53.480;9.688;2023-05-07T09:41:32;5.60;;;4.53;;
2406;SDS011;37709;53.480;9.688;2023-05-07T09:44:09;5.47;;;4.60;;
2406;SDS011;37709;53.480;9.688;2023-05-07T09:46:42;4.70;;;4.30;;
2406;SDS011;37709;53.480;9.688;2023-05-07T09:49:22;4.23;;;3.90;;
2406;SDS011;37709;53.480;9.688;2023-05-07T09:51:56;4.10;;;3.80;;
2406;SDS011;37709;53.480;9.688;2023-05-07T09:54:29;5.13;;;4.60;;
2406;SDS011;37709;53.480;9.688;2023-05-07T09:56:58;5.37;;;4.97;;
2406;SDS011;37709;53.480;9.688;2023-05-07T09:59:30;4.40;;;4.00;;
2406;SDS011;37709;53.480;9.688;2023-05-07T10:02:02;4.60;;;4.20;;
2406;SDS011;37709;53.480;9.688;2023-05-07T10:04:35;5.50;;;4.77;;
2406;SDS011;37709;53.480;9.688;2023-05-07T10:07:07;5.30;;;4.80;;
2406;SDS011;37709;53.480;9.688;2023-05-07T10:09:37;4.97;;;4.43;;
2406;SDS011;37709;53.480;9.688;2023-05-07T10:12:11;3.90;;;3.60;;
2406;SDS011;37709;53.480;9.688;2023-05-07T10:14:39;5.10;;;4.70;;
2406;SDS011;37709;53.480;9.688;2023-05-07T10:17:07;5.30;;;4.80;;
2406;SDS011;37709;53.480;9.688;2023-05-07T10:19:35;5.03;;;4.63;;
2406;SDS011;37709;53.480;9.688;2023-05-07T10:22:05;4.70;;;4.27;;
2406;SDS011;37709;53.480;9.688;2023-05-07T10:24:40;4.93;;;4.53;;
2406;SDS011;37709;53.480;9.688;2023-05-07T10:27:13;5.07;;;4.57;;
2406;SDS011;37709;53.480;9.688;2023-05-07T10:35:17;5.40;;;4.90;;
2406;SDS011;37709;53.480;9.688;2023-05-07T10:37:49;4.57;;;4.17;;
2406;SDS011;37709;53.480;9.688;2023-05-07T10:40:17;4.77;;;4.03;;
2406;SDS011;37709;53.480;9.688;2023-05-07T10:42:54;4.33;;;4.00;;
2406;SDS011;37709;53.480;9.688;2023-05-07T10:45:23;5.27;;;4.70;;
2406;SDS011;37709;53.480;9.688;2023-05-07T10:51:18;5.30;;;4.80;;
2406;SDS011;37709;53.480;9.688;2023-05-07T10:54:31;4.97;;;4.47;;
2406;SDS011;37709;53.480;9.688;2023-05-07T10:56:58;5.60;;;5.10;;
2406;SDS011;37709;53.480;9.688;2023-05-07T10:59:59;6.23;;;5.20;;
2406;SDS011;37709;53.480;9.688;2023-05-07T11:05:34;6.10;;;5.60;;
2406;SDS011;37709;53.480;9.688;2023-05-07T11:08:14;5.77;;;5.27;;
2406;SDS011;37709;53.480;9.688;2023-05-07T11:10:55;5.27;;;4.77;;
2406;SDS011;37709;53.480;9.688;2023-05-07T11:13:48;5.70;;;5.20;;
2406;SDS011;37709;53.480;9.688;2023-05-07T11:16:27;4.50;;;4.10;;
2406;SDS011;37709;53.480;9.688;2023-05-07T11:19:05;4.70;;;4.30;;
2406;SDS011;37709;53.480;9.688;2023-05-07T11:21:38;5.50;;;4.90;;
2406;SDS011;37709;53.480;9.688;2023-05-07T11:24:23;5.90;;;5.40;;
2406;SDS011;37709;53.480;9.688;2023-05-07T11:27:01;5.57;;;5.07;;
2406;SDS011;37709;53.480;9.688;2023-05-07T11:29:30;5.30;;;4.80;;
2406;SDS011;37709;53.480;9.688;2023-05-07T11:32:06;5.97;;;5.47;;
2406;SDS011;37709;53.480;9.688;2023-05-07T11:34:54;5.80;;;5.23;;
2406;SDS011;37709;53.480;9.688;2023-05-07T11:37:22;5.30;;;4.90;;
2406;SDS011;37709;53.480;9.688;2023-05-07T11:40:05;5.30;;;4.80;;
2406;SDS011;37709;53.480;9.688;2023-05-07T11:42:37;5.93;;;4.40;;
2406;SDS011;37709;53.480;9.688;2023-05-07T11:45:07;5.10;;;4.70;;
2406;SDS011;37709;53.480;9.688;2023-05-07T11:47:36;5.00;;;4.50;;
2406;SDS011;37709;53.480;9.688;2023-05-07T11:50:07;4.70;;;4.30;;
2406;SDS011;37709;53.480;9.688;2023-05-07T11:52:36;5.70;;;5.10;;
2406;SDS011;37709;53.480;9.688;2023-05-07T11:55:06;4.97;;;4.50;;
2406;SDS011;37709;53.480;9.688;2023-05-07T11:57:34;5.37;;;4.90;;
2406;SDS011;37709;53.480;9.688;2023-05-07T12:00:02;5.60;;;5.10;;
2406;SDS011;37709;53.480;9.688;2023-05-07T12:02:40;4.50;;;4.10;;
2406;SDS011;37709;53.480;9.688;2023-05-07T12:05:09;4.80;;;4.40;;
2406;SDS011;37709;53.480;9.688;2023-05-07T12:07:36;5.13;;;4.73;;
2406;SDS011;37709;53.480;9.688;2023-05-07T12:10:04;4.70;;;4.30;;
2406;SDS011;37709;53.480;9.688;2023-05-07T12:12:39;4.73;;;4.33;;
2406;SDS011;37709;53.480;9.688;2023-05-07T12:15:08;5.40;;;4.40;;
2406;SDS011;37709;53.480;9.688;2023-05-07T12:17:37;4.80;;;4.40;;
2406;SDS011;37709;53.480;9.688;2023-05-07T12:20:05;4.80;;;4.40;;
2406;SDS011;37709;53.480;9.688;2023-05-07T12:22:34;4.63;;;4.23;;
2406;SDS011;37709;53.480;9.688;2023-05-07T12:25:02;4.87;;;4.47;;
2406;SDS011;37709;53.480;9.688;2023-05-07T12:27:30;4.23;;;3.93;;
2406;SDS011;37709;53.480;9.688;2023-05-07T12:29:58;4.30;;;4.00;;
2406;SDS011;37709;53.480;9.688;2023-05-07T12:32:26;4.23;;;3.60;;
2406;SDS011;37709;53.480;9.688;2023-05-07T12:34:53;3.50;;;3.20;;
2406;SDS011;37709;53.480;9.688;2023-05-07T12:37:24;3.70;;;3.30;;
2406;SDS011;37709;53.480;9.688;2023-05-07T12:42:54;4.03;;;3.73;;
2406;SDS011;37709;53.480;9.688;2023-05-07T12:45:25;3.80;;;3.43;;
2406;SDS011;37709;53.480;9.688;2023-05-07T12:47:53;5.53;;;3.40;;
2406;SDS011;37709;53.480;9.688;2023-05-07T12:50:21;3.97;;;3.57;;
2406;SDS011;37709;53.480;9.688;2023-05-07T12:52:49;3.50;;;3.20;;
2406;SDS011;37709;53.480;9.688;2023-05-07T12:55:17;3.90;;;3.60;;
2406;SDS011;37709;53.480;9.688;2023-05-07T12:57:48;3.97;;;3.57;;
2406;SDS011;37709;53.480;9.688;2023-05-07T13:00:17;3.63;;;3.33;;
2406;SDS011;37709;53.480;9.688;2023-05-07T13:02:45;3.90;;;3.50;;
2406;SDS011;37709;53.480;9.688;2023-05-07T13:05:13;3.90;;;3.60;;
2406;SDS011;37709;53.480;9.688;2023-05-07T13:07:41;3.57;;;3.27;;
2406;SDS011;37709;53.480;9.688;2023-05-07T13:10:19;4.43;;;3.13;;
2406;SDS011;37709;53.480;9.688;2023-05-07T13:12:46;5.03;;;3.67;;
2406;SDS011;37709;53.480;9.688;2023-05-07T13:15:14;3.80;;;3.10;;
2406;SDS011;37709;53.480;9.688;2023-05-07T13:17:42;3.43;;;3.13;;
2406;SDS011;37709;53.480;9.688;2023-05-07T13:20:10;3.80;;;3.57;;
2406;SDS011;37709;53.480;9.688;2023-05-07T13:22:39;3.80;;;3.40;;
2406;SDS011;37709;53.480;9.688;2023-05-07T13:25:07;3.50;;;3.03;;
2406;SDS011;37709;53.480;9.688;2023-05-07T13:27:35;3.43;;;3.13;;
2406;SDS011;37709;53.480;9.688;2023-05-07T13:30:04;3.50;;;3.30;;
2406;SDS011;37709;53.480;9.688;2023-05-07T13:32:32;3.60;;;3.30;;
2406;SDS011;37709;53.480;9.688;2023-05-07T13:34:59;3.37;;;3.17;;
2406;SDS011;37709;53.480;9.688;2023-05-07T13:37:27;3.73;;;3.43;;
2406;SDS011;37709;53.480;9.688;2023-05-07T13:39:54;3.23;;;2.80;;
2406;SDS011;37709;53.480;9.688;2023-05-07T13:42:21;3.30;;;3.10;;
2406;SDS011;37709;53.480;9.688;2023-05-07T13:44:49;3.50;;;3.20;;
2406;SDS011;37709;53.480;9.688;2023-05-07T13:47:16;4.63;;;3.10;;
2406;SDS011;37709;53.480;9.688;2023-05-07T13:49:44;3.63;;;3.33;;
2406;SDS011;37709;53.480;9.688;2023-05-07T13:52:12;3.67;;;3.20;;
2406;SDS011;37709;53.480;9.688;2023-05-07T13:54:39;3.07;;;2.80;;
2406;SDS011;37709;53.480;9.688;2023-05-07T13:57:07;3.10;;;2.90;;
2406;SDS011;37709;53.480;9.688;2023-05-07T13:59:34;2.57;;;2.37;;
2406;SDS011;37709;53.480;9.688;2023-05-07T14:02:02;3.00;;;2.80;;
2406;SDS011;37709;53.480;9.688;2023-05-07T14:04:30;3.30;;;3.10;;
2406;SDS011;37709;53.480;9.688;2023-05-07T14:06:59;3.30;;;3.00;;
2406;SDS011;37709;53.480;9.688;2023-05-07T14:09:27;3.00;;;2.70;;
2406;SDS011;37709;53.480;9.688;2023-05-07T14:11:55;3.53;;;3.23;;
2406;SDS011;37709;53.480;9.688;2023-05-07T14:14:22;3.40;;;3.10;;
2406;SDS011;37709;53.480;9.688;2023-05-07T14:16:50;3.60;;;3.20;;
2406;SDS011;37709;53.480;9.688;2023-05-07T14:19:18;4.37;;;3.40;;
2406;SDS011;37709;53.480;9.688;2023-05-07T14:21:45;3.10;;;2.90;;
2406;SDS011;37709;53.480;9.688;2023-05-07T14:24:12;3.60;;;3.30;;
2406;SDS011;37709;53.480;9.688;2023-05-07T14:26:47;3.17;;;2.97;;
2406;SDS011;37709;53.480;9.688;2023-05-07T14:29:14;3.07;;;2.87;;
2406;SDS011;37709;53.480;9.688;2023-05-07T14:31:50;4.07;;;3.00;;
2406;SDS011;37709;53.480;9.688;2023-05-07T14:34:17;2.93;;;2.63;;
2406;SDS011;37709;53.480;9.688;2023-05-07T14:36:44;3.13;;;2.83;;
2406;SDS011;37709;53.480;9.688;2023-05-07T14:39:11;3.43;;;2.90;;
2406;SDS011;37709;53.480;9.688;2023-05-07T14:41:40;3.13;;;2.50;;
2406;SDS011;37709;53.480;9.688;2023-05-07T14:44:08;2.60;;;2.40;;
2406;SDS011;37709;53.480;9.688;2023-05-07T14:46:36;2.30;;;2.10;;
2406;SDS011;37709;53.480;9.688;2023-05-07T14:49:03;2.93;;;2.63;;
2406;SDS011;37709;53.480;9.688;2023-05-07T14:51:31;2.90;;;2.67;;
2406;SDS011;37709;53.480;9.688;2023-05-07T14:53:59;3.10;;;2.80;;
2406;SDS011;37709;53.480;9.688;2023-05-07T14:56:28;2.80;;;2.60;;
2406;SDS011;37709;53.480;9.688;2023-05-07T14:58:55;3.63;;;2.83;;
2406;SDS011;37709;53.480;9.688;2023-05-07T15:01:23;3.13;;;2.83;;
2406;SDS011;37709;53.480;9.688;2023-05-07T15:03:52;2.80;;;2.60;;
2406;SDS011;37709;53.480;9.688;2023-05-07T15:06:20;3.40;;;2.70;;
2406;SDS011;37709;53.480;9.688;2023-05-07T15:08:48;3.50;;;2.93;;
2406;SDS011;37709;53.480;9.688;2023-05-07T15:11:15;3.00;;;2.70;;
2406;SDS011;37709;53.480;9.688;2023-05-07T15:13:43;3.03;;;2.07;;
2406;SDS011;37709;53.480;9.688;2023-05-07T15:16:11;2.90;;;2.70;;
2406;SDS011;37709;53.480;9.688;2023-05-07T15:18:38;3.13;;;2.53;;
2406;SDS011;37709;53.480;9.688;2023-05-07T15:21:05;2.23;;;2.03;;
2406;SDS011;37709;53.480;9.688;2023-05-07T15:23:33;2.77;;;2.30;;
2406;SDS011;37709;53.480;9.688;2023-05-07T15:26:01;2.10;;;1.90;;
2406;SDS011;37709;53.480;9.688;2023-05-07T15:28:28;2.60;;;2.43;;
2406;SDS011;37709;53.480;9.688;2023-05-07T15:30:58;2.23;;;2.00;;
2406;SDS011;37709;53.480;9.688;2023-05-07T15:33:25;2.00;;;1.90;;